Quemado, Texas
Current Conditions -  °F | °C
As of 10:58 AM on Thursday 27 Nov 2014 (Local Time) from KDLF Reporting Station
Haze Haze  
Wind Chill: 59°   Ceiling: Unl
Heat Index: 59°   Visibility: 4mi
Dew Point: 38°   Wind: 6mph
Humidity: 45%   Direction: 120°ESE
Pressure: 30.48"   Gusts: NA
Location:  28.95°N, 100.62°W
Report Text: KDLF 271658Z AUTO 12005KT 4SM HZ CLR 15/03 A3048 RMK AO2 SLP320 T01500032 $
Loading
Personal Weather Stations






























Interactive Weather Map New forecast layout! Learn more

10-Day Weather Forecast

Advertisements
Track Severe Weather on mobile